sensor_id;sensor_type;location;lat;lon;timestamp;temperature;humidity
6462;DHT22;3264;42.862;25.098;2022-07-10T00:01:56;16.90;99.90
6462;DHT22;3264;42.862;25.098;2022-07-10T00:04:28;16.90;99.90
6462;DHT22;3264;42.862;25.098;2022-07-10T00:06:57;16.90;99.90
6462;DHT22;3264;42.862;25.098;2022-07-10T00:09:32;17.00;99.90
6462;DHT22;3264;42.862;25.098;2022-07-10T00:12:05;16.90;99.90
6462;DHT22;3264;42.862;25.098;2022-07-10T00:14:36;16.90;99.90
6462;DHT22;3264;42.862;25.098;2022-07-10T00:17:07;16.80;99.90
6462;DHT22;3264;42.862;25.098;2022-07-10T00:19:35;16.70;99.90
6462;DHT22;3264;42.862;25.098;2022-07-10T00:22:05;16.70;99.90
6462;DHT22;3264;42.862;25.098;2022-07-10T00:24:33;16.70;99.90
6462;DHT22;3264;42.862;25.098;2022-07-10T00:27:12;16.60;99.90
6462;DHT22;3264;42.862;25.098;2022-07-10T00:29:43;16.50;99.90
6462;DHT22;3264;42.862;25.098;2022-07-10T00:32:10;16.50;99.90
6462;DHT22;3264;42.862;25.098;2022-07-10T00:34:38;16.50;99.90
6462;DHT22;3264;42.862;25.098;2022-07-10T00:37:06;16.50;99.90
6462;DHT22;3264;42.862;25.098;2022-07-10T00:39:34;16.50;99.90
6462;DHT22;3264;42.862;25.098;2022-07-10T00:42:07;16.40;99.90
6462;DHT22;3264;42.862;25.098;2022-07-10T00:44:41;16.40;99.90
6462;DHT22;3264;42.862;25.098;2022-07-10T00:47:17;16.30;99.90
6462;DHT22;3264;42.862;25.098;2022-07-10T00:49:46;16.20;99.90
6462;DHT22;3264;42.862;25.098;2022-07-10T00:52:18;16.20;99.90
6462;DHT22;3264;42.862;25.098;2022-07-10T00:54:50;16.20;99.90
6462;DHT22;3264;42.862;25.098;2022-07-10T00:57:24;16.30;99.90
6462;DHT22;3264;42.862;25.098;2022-07-10T00:59:58;16.30;99.90
6462;DHT22;3264;42.862;25.098;2022-07-10T01:02:29;16.30;99.90
6462;DHT22;3264;42.862;25.098;2022-07-10T01:04:57;16.20;99.90
6462;DHT22;3264;42.862;25.098;2022-07-10T01:07:30;16.20;99.90
6462;DHT22;3264;42.862;25.098;2022-07-10T01:10:00;16.30;99.90
6462;DHT22;3264;42.862;25.098;2022-07-10T01:12:30;16.20;99.90
6462;DHT22;3264;42.862;25.098;2022-07-10T01:15:00;16.30;99.90
6462;DHT22;3264;42.862;25.098;2022-07-10T01:17:28;16.30;99.90
6462;DHT22;3264;42.862;25.098;2022-07-10T01:20:04;16.40;99.90
6462;DHT22;3264;42.862;25.098;2022-07-10T01:22:39;16.30;99.90
6462;DHT22;3264;42.862;25.098;2022-07-10T01:25:07;16.40;99.90
6462;DHT22;3264;42.862;25.098;2022-07-10T01:27:37;16.40;99.90
6462;DHT22;3264;42.862;25.098;2022-07-10T01:30:09;16.30;99.90
6462;DHT22;3264;42.862;25.098;2022-07-10T01:32:38;16.20;99.90
6462;DHT22;3264;42.862;25.098;2022-07-10T01:35:09;16.20;99.90
6462;DHT22;3264;42.862;25.098;2022-07-10T01:37:40;16.20;99.90
6462;DHT22;3264;42.862;25.098;2022-07-10T01:40:12;16.20;99.90
6462;DHT22;3264;42.862;25.098;2022-07-10T01:42:43;16.10;99.90
6462;DHT22;3264;42.862;25.098;2022-07-10T01:45:12;16.20;99.90
6462;DHT22;3264;42.862;25.098;2022-07-10T01:47:41;16.30;99.90
6462;DHT22;3264;42.862;25.098;2022-07-10T01:50:09;16.30;99.90
6462;DHT22;3264;42.862;25.098;2022-07-10T01:52:41;16.20;99.90
6462;DHT22;3264;42.862;25.098;2022-07-10T01:55:11;16.20;99.90
6462;DHT22;3264;42.862;25.098;2022-07-10T01:57:42;16.20;99.90
6462;DHT22;3264;42.862;25.098;2022-07-10T02:00:11;16.20;99.90
6462;DHT22;3264;42.862;25.098;2022-07-10T02:02:39;16.20;99.90
6462;DHT22;3264;42.862;25.098;2022-07-10T02:05:28;16.20;99.90
6462;DHT22;3264;42.862;25.098;2022-07-10T02:07:57;16.00;99.90
6462;DHT22;3264;42.862;25.098;2022-07-10T02:10:26;16.20;99.90
6462;DHT22;3264;42.862;25.098;2022-07-10T02:12:54;16.20;99.90
6462;DHT22;3264;42.862;25.098;2022-07-10T02:15:24;16.20;99.90
6462;DHT22;3264;42.862;25.098;2022-07-10T02:17:52;16.30;99.90
6462;DHT22;3264;42.862;25.098;2022-07-10T02:20:23;16.20;99.90
6462;DHT22;3264;42.862;25.098;2022-07-10T02:22:54;16.10;99.90
6462;DHT22;3264;42.862;25.098;2022-07-10T02:25:24;16.10;99.90
6462;DHT22;3264;42.862;25.098;2022-07-10T02:27:52;16.10;99.90
6462;DHT22;3264;42.862;25.098;2022-07-10T02:30:23;16.10;99.90
6462;DHT22;3264;42.862;25.098;2022-07-10T02:32:50;16.10;99.90
6462;DHT22;3264;42.862;25.098;2022-07-10T02:35:18;16.10;99.90
6462;DHT22;3264;42.862;25.098;2022-07-10T02:37:47;16.20;99.90
6462;DHT22;3264;42.862;25.098;2022-07-10T02:40:18;16.20;99.90
6462;DHT22;3264;42.862;25.098;2022-07-10T02:43:08;16.30;99.90
6462;DHT22;3264;42.862;25.098;2022-07-10T02:45:39;16.30;99.90
6462;DHT22;3264;42.862;25.098;2022-07-10T02:48:07;16.20;99.90
6462;DHT22;3264;42.862;25.098;2022-07-10T02:50:37;16.10;99.90
6462;DHT22;3264;42.862;25.098;2022-07-10T02:53:14;16.10;99.90
6462;DHT22;3264;42.862;25.098;2022-07-10T02:55:43;16.10;99.90
6462;DHT22;3264;42.862;25.098;2022-07-10T02:58:12;16.20;99.90
6462;DHT22;3264;42.862;25.098;2022-07-10T03:00:46;16.10;99.90
6462;DHT22;3264;42.862;25.098;2022-07-10T03:03:16;16.20;99.90
6462;DHT22;3264;42.862;25.098;2022-07-10T03:05:44;16.20;99.90
6462;DHT22;3264;42.862;25.098;2022-07-10T03:08:11;16.20;99.90
6462;DHT22;3264;42.862;25.098;2022-07-10T03:10:39;16.20;99.90
6462;DHT22;3264;42.862;25.098;2022-07-10T03:13:07;16.20;99.90
6462;DHT22;3264;42.862;25.098;2022-07-10T03:15:45;16.30;99.90
6462;DHT22;3264;42.862;25.098;2022-07-10T03:18:15;16.30;99.90
6462;DHT22;3264;42.862;25.098;2022-07-10T03:20:42;16.30;99.90
6462;DHT22;3264;42.862;25.098;2022-07-10T03:23:14;16.40;99.90
6462;DHT22;3264;42.862;25.098;2022-07-10T03:25:48;16.40;99.90
6462;DHT22;3264;42.862;25.098;2022-07-10T03:28:16;16.40;99.90
6462;DHT22;3264;42.862;25.098;2022-07-10T03:30:53;16.40;99.90
6462;DHT22;3264;42.862;25.098;2022-07-10T03:33:29;16.40;99.90
6462;DHT22;3264;42.862;25.098;2022-07-10T03:35:57;16.40;99.90
6462;DHT22;3264;42.862;25.098;2022-07-10T03:38:27;16.40;99.90
6462;DHT22;3264;42.862;25.098;2022-07-10T03:40:57;16.40;99.90
6462;DHT22;3264;42.862;25.098;2022-07-10T03:43:28;16.50;99.90
6462;DHT22;3264;42.862;25.098;2022-07-10T03:46:04;16.60;99.90
6462;DHT22;3264;42.862;25.098;2022-07-10T03:48:32;16.60;99.90
6462;DHT22;3264;42.862;25.098;2022-07-10T03:50:59;16.70;99.90
6462;DHT22;3264;42.862;25.098;2022-07-10T03:53:27;16.70;99.90
6462;DHT22;3264;42.862;25.098;2022-07-10T03:55:55;16.70;99.90
6462;DHT22;3264;42.862;25.098;2022-07-10T03:58:23;16.80;99.90
6462;DHT22;3264;42.862;25.098;2022-07-10T04:00:52;16.80;99.90
6462;DHT22;3264;42.862;25.098;2022-07-10T04:03:29;16.80;99.90
6462;DHT22;3264;42.862;25.098;2022-07-10T04:05:57;16.90;99.90
6462;DHT22;3264;42.862;25.098;2022-07-10T04:08:25;17.00;99.90
6462;DHT22;3264;42.862;25.098;2022-07-10T04:10:54;17.00;99.90
6462;DHT22;3264;42.862;25.098;2022-07-10T04:13:24;17.00;99.90
6462;DHT22;3264;42.862;25.098;2022-07-10T04:15:57;17.10;99.90
6462;DHT22;3264;42.862;25.098;2022-07-10T04:18:31;17.10;99.90
6462;DHT22;3264;42.862;25.098;2022-07-10T04:21:06;17.00;99.90
6462;DHT22;3264;42.862;25.098;2022-07-10T04:23:34;17.00;99.90
6462;DHT22;3264;42.862;25.098;2022-07-10T04:26:13;16.90;99.90
6462;DHT22;3264;42.862;25.098;2022-07-10T04:28:46;16.90;99.90
6462;DHT22;3264;42.862;25.098;2022-07-10T04:31:18;17.00;99.90
6462;DHT22;3264;42.862;25.098;2022-07-10T04:33:52;17.10;99.90
6462;DHT22;3264;42.862;25.098;2022-07-10T04:36:24;17.20;99.90
6462;DHT22;3264;42.862;25.098;2022-07-10T04:38:54;17.30;99.90
6462;DHT22;3264;42.862;25.098;2022-07-10T04:41:22;17.50;99.90
6462;DHT22;3264;42.862;25.098;2022-07-10T04:43:49;17.50;99.90
6462;DHT22;3264;42.862;25.098;2022-07-10T04:46:24;17.70;99.90
6462;DHT22;3264;42.862;25.098;2022-07-10T04:48:53;17.90;99.90
6462;DHT22;3264;42.862;25.098;2022-07-10T04:51:21;18.10;99.90
6462;DHT22;3264;42.862;25.098;2022-07-10T04:53:51;18.20;99.90
6462;DHT22;3264;42.862;25.098;2022-07-10T04:56:27;18.20;99.90
6462;DHT22;3264;42.862;25.098;2022-07-10T04:59:05;18.30;99.90
6462;DHT22;3264;42.862;25.098;2022-07-10T05:01:33;18.70;99.90
6462;DHT22;3264;42.862;25.098;2022-07-10T05:04:04;18.80;99.90
6462;DHT22;3264;42.862;25.098;2022-07-10T05:06:33;18.80;99.90
6462;DHT22;3264;42.862;25.098;2022-07-10T05:09:03;18.90;99.90
6462;DHT22;3264;42.862;25.098;2022-07-10T05:11:41;18.90;99.90
6462;DHT22;3264;42.862;25.098;2022-07-10T05:14:16;18.80;99.90
6462;DHT22;3264;42.862;25.098;2022-07-10T05:16:46;18.90;99.90
6462;DHT22;3264;42.862;25.098;2022-07-10T05:19:16;19.00;99.90
6462;DHT22;3264;42.862;25.098;2022-07-10T05:21:43;19.00;99.90
6462;DHT22;3264;42.862;25.098;2022-07-10T05:24:21;19.10;99.90
6462;DHT22;3264;42.862;25.098;2022-07-10T05:26:49;19.10;99.90
6462;DHT22;3264;42.862;25.098;2022-07-10T05:29:22;19.10;99.90
6462;DHT22;3264;42.862;25.098;2022-07-10T05:31:50;19.10;99.90
6462;DHT22;3264;42.862;25.098;2022-07-10T05:34:21;19.10;99.90
6462;DHT22;3264;42.862;25.098;2022-07-10T05:36:52;19.00;99.90
6462;DHT22;3264;42.862;25.098;2022-07-10T05:39:27;19.00;99.90
6462;DHT22;3264;42.862;25.098;2022-07-10T05:41:57;18.70;99.90
6462;DHT22;3264;42.862;25.098;2022-07-10T05:44:33;18.50;99.90
6462;DHT22;3264;42.862;25.098;2022-07-10T05:47:01;18.50;99.90
6462;DHT22;3264;42.862;25.098;2022-07-10T05:49:32;18.10;99.90
6462;DHT22;3264;42.862;25.098;2022-07-10T05:52:01;18.20;99.90
6462;DHT22;3264;42.862;25.098;2022-07-10T05:54:30;18.30;99.90
6462;DHT22;3264;42.862;25.098;2022-07-10T05:56:58;18.40;99.90
6462;DHT22;3264;42.862;25.098;2022-07-10T05:59:26;18.50;99.90
6462;DHT22;3264;42.862;25.098;2022-07-10T06:01:53;18.50;99.90
6462;DHT22;3264;42.862;25.098;2022-07-10T06:04:21;18.60;99.90
6462;DHT22;3264;42.862;25.098;2022-07-10T06:06:54;18.60;99.90
6462;DHT22;3264;42.862;25.098;2022-07-10T06:09:22;18.60;99.90
6462;DHT22;3264;42.862;25.098;2022-07-10T06:11:50;18.60;99.90
6462;DHT22;3264;42.862;25.098;2022-07-10T06:14:20;18.80;99.90
6462;DHT22;3264;42.862;25.098;2022-07-10T06:16:51;18.50;99.90
6462;DHT22;3264;42.862;25.098;2022-07-10T06:19:19;18.60;99.90
6462;DHT22;3264;42.862;25.098;2022-07-10T06:21:47;18.60;99.90
6462;DHT22;3264;42.862;25.098;2022-07-10T06:24:38;18.80;99.90
6462;DHT22;3264;42.862;25.098;2022-07-10T06:27:10;18.50;99.90
6462;DHT22;3264;42.862;25.098;2022-07-10T06:29:38;18.70;99.90
6462;DHT22;3264;42.862;25.098;2022-07-10T06:32:07;18.70;99.90
6462;DHT22;3264;42.862;25.098;2022-07-10T06:34:36;18.50;99.90
6462;DHT22;3264;42.862;25.098;2022-07-10T06:37:07;18.80;99.90
6462;DHT22;3264;42.862;25.098;2022-07-10T06:39:37;18.90;99.90
6462;DHT22;3264;42.862;25.098;2022-07-10T06:42:08;18.60;99.90
6462;DHT22;3264;42.862;25.098;2022-07-10T06:44:36;18.60;99.90
6462;DHT22;3264;42.862;25.098;2022-07-10T06:47:11;18.50;99.90
6462;DHT22;3264;42.862;25.098;2022-07-10T06:49:56;18.50;99.90
6462;DHT22;3264;42.862;25.098;2022-07-10T06:52:34;18.50;99.90
6462;DHT22;3264;42.862;25.098;2022-07-10T06:55:06;18.40;99.90
6462;DHT22;3264;42.862;25.098;2022-07-10T06:57:35;18.70;99.90
6462;DHT22;3264;42.862;25.098;2022-07-10T07:00:03;18.70;99.90
6462;DHT22;3264;42.862;25.098;2022-07-10T07:02:32;18.60;99.90
6462;DHT22;3264;42.862;25.098;2022-07-10T07:05:01;18.70;99.90
6462;DHT22;3264;42.862;25.098;2022-07-10T07:07:35;18.70;99.90
6462;DHT22;3264;42.862;25.098;2022-07-10T07:10:08;18.90;99.90
6462;DHT22;3264;42.862;25.098;2022-07-10T07:12:40;19.00;99.90
6462;DHT22;3264;42.862;25.098;2022-07-10T07:15:10;19.10;99.90
6462;DHT22;3264;42.862;25.098;2022-07-10T07:17:43;19.10;99.90
6462;DHT22;3264;42.862;25.098;2022-07-10T07:20:28;19.00;99.90
6462;DHT22;3264;42.862;25.098;2022-07-10T07:23:14;19.10;99.90
6462;DHT22;3264;42.862;25.098;2022-07-10T07:25:44;19.20;99.90
6462;DHT22;3264;42.862;25.098;2022-07-10T07:28:13;19.20;99.90
6462;DHT22;3264;42.862;25.098;2022-07-10T07:30:45;19.30;99.90
6462;DHT22;3264;42.862;25.098;2022-07-10T07:33:18;19.40;99.90
6462;DHT22;3264;42.862;25.098;2022-07-10T07:35:48;19.70;99.90
6462;DHT22;3264;42.862;25.098;2022-07-10T07:38:20;19.70;99.90
6462;DHT22;3264;42.862;25.098;2022-07-10T07:40:49;19.80;99.90
6462;DHT22;3264;42.862;25.098;2022-07-10T07:43:17;20.00;99.90
6462;DHT22;3264;42.862;25.098;2022-07-10T07:45:46;20.30;99.90
6462;DHT22;3264;42.862;25.098;2022-07-10T07:48:16;20.60;99.90
6462;DHT22;3264;42.862;25.098;2022-07-10T07:50:53;20.70;99.90
6462;DHT22;3264;42.862;25.098;2022-07-10T07:53:25;20.60;99.90
6462;DHT22;3264;42.862;25.098;2022-07-10T07:56:03;20.50;99.90
6462;DHT22;3264;42.862;25.098;2022-07-10T07:58:33;20.50;99.90
6462;DHT22;3264;42.862;25.098;2022-07-10T08:01:01;20.50;99.90
6462;DHT22;3264;42.862;25.098;2022-07-10T08:03:31;20.40;99.90
6462;DHT22;3264;42.862;25.098;2022-07-10T08:06:01;20.40;99.90
6462;DHT22;3264;42.862;25.098;2022-07-10T08:08:29;20.60;99.90
6462;DHT22;3264;42.862;25.098;2022-07-10T08:10:58;20.60;99.90
6462;DHT22;3264;42.862;25.098;2022-07-10T08:13:26;20.60;99.90
6462;DHT22;3264;42.862;25.098;2022-07-10T08:15:56;20.80;99.90
6462;DHT22;3264;42.862;25.098;2022-07-10T08:18:25;20.80;99.90
6462;DHT22;3264;42.862;25.098;2022-07-10T08:20:57;20.90;99.90
6462;DHT22;3264;42.862;25.098;2022-07-10T08:23:25;20.90;99.90
6462;DHT22;3264;42.862;25.098;2022-07-10T08:26:00;20.80;99.80
6462;DHT22;3264;42.862;25.098;2022-07-10T08:28:28;20.70;99.90
6462;DHT22;3264;42.862;25.098;2022-07-10T08:30:58;20.70;99.90
6462;DHT22;3264;42.862;25.098;2022-07-10T08:33:26;20.60;99.90
6462;DHT22;3264;42.862;25.098;2022-07-10T08:35:59;20.70;99.90
6462;DHT22;3264;42.862;25.098;2022-07-10T08:38:29;20.80;99.90
6462;DHT22;3264;42.862;25.098;2022-07-10T08:41:05;20.80;99.90
6462;DHT22;3264;42.862;25.098;2022-07-10T08:43:35;20.80;99.90
6462;DHT22;3264;42.862;25.098;2022-07-10T08:46:13;20.70;99.90
6462;DHT22;3264;42.862;25.098;2022-07-10T08:48:42;20.70;99.90
6462;DHT22;3264;42.862;25.098;2022-07-10T08:51:24;20.60;99.90
6462;DHT22;3264;42.862;25.098;2022-07-10T08:54:01;20.60;99.90
6462;DHT22;3264;42.862;25.098;2022-07-10T08:56:31;20.60;99.90
6462;DHT22;3264;42.862;25.098;2022-07-10T08:58:59;20.60;99.90
6462;DHT22;3264;42.862;25.098;2022-07-10T09:01:30;20.80;99.90
6462;DHT22;3264;42.862;25.098;2022-07-10T09:04:03;20.80;99.90
6462;DHT22;3264;42.862;25.098;2022-07-10T09:06:32;20.80;99.90
6462;DHT22;3264;42.862;25.098;2022-07-10T09:09:04;20.90;99.90
6462;DHT22;3264;42.862;25.098;2022-07-10T09:11:34;20.80;99.90
6462;DHT22;3264;42.862;25.098;2022-07-10T09:14:10;20.90;99.90
6462;DHT22;3264;42.862;25.098;2022-07-10T09:16:40;21.50;99.90
6462;DHT22;3264;42.862;25.098;2022-07-10T09:19:17;21.50;99.90
6462;DHT22;3264;42.862;25.098;2022-07-10T09:21:52;21.20;99.90
6462;DHT22;3264;42.862;25.098;2022-07-10T09:24:25;21.10;99.30
6462;DHT22;3264;42.862;25.098;2022-07-10T09:27:03;20.60;99.80
6462;DHT22;3264;42.862;25.098;2022-07-10T09:29:43;20.60;98.90
6462;DHT22;3264;42.862;25.098;2022-07-10T09:32:20;20.40;99.30
6462;DHT22;3264;42.862;25.098;2022-07-10T09:34:49;20.40;99.90
6462;DHT22;3264;42.862;25.098;2022-07-10T09:37:40;20.40;99.30
6462;DHT22;3264;42.862;25.098;2022-07-10T09:40:12;20.40;99.90
6462;DHT22;3264;42.862;25.098;2022-07-10T09:42:46;20.80;99.90
6462;DHT22;3264;42.862;25.098;2022-07-10T09:45:19;21.00;99.80
6462;DHT22;3264;42.862;25.098;2022-07-10T09:47:57;21.10;98.90
6462;DHT22;3264;42.862;25.098;2022-07-10T09:50:32;20.90;99.20
6462;DHT22;3264;42.862;25.098;2022-07-10T09:53:02;21.00;99.90
6462;DHT22;3264;42.862;25.098;2022-07-10T09:55:39;21.40;99.50
6462;DHT22;3264;42.862;25.098;2022-07-10T09:58:23;21.30;98.30
6462;DHT22;3264;42.862;25.098;2022-07-10T10:00:55;21.30;98.80
6462;DHT22;3264;42.862;25.098;2022-07-10T10:03:28;21.50;98.80
6462;DHT22;3264;42.862;25.098;2022-07-10T10:06:08;21.70;98.40
6462;DHT22;3264;42.862;25.098;2022-07-10T10:08:48;22.10;99.50
6462;DHT22;3264;42.862;25.098;2022-07-10T10:11:21;22.30;96.60
6462;DHT22;3264;42.862;25.098;2022-07-10T10:13:58;22.50;96.20
6462;DHT22;3264;42.862;25.098;2022-07-10T10:16:29;22.60;95.50
6462;DHT22;3264;42.862;25.098;2022-07-10T10:19:02;22.80;95.00
6462;DHT22;3264;42.862;25.098;2022-07-10T10:22:02;23.50;95.70
6462;DHT22;3264;42.862;25.098;2022-07-10T10:24:32;23.50;95.80
6462;DHT22;3264;42.862;25.098;2022-07-10T10:27:05;23.50;95.20
6462;DHT22;3264;42.862;25.098;2022-07-10T10:29:43;23.00;95.30
6462;DHT22;3264;42.862;25.098;2022-07-10T10:32:28;22.80;94.80
6462;DHT22;3264;42.862;25.098;2022-07-10T10:34:59;22.90;95.10
6462;DHT22;3264;42.862;25.098;2022-07-10T10:37:34;23.20;96.10
6462;DHT22;3264;42.862;25.098;2022-07-10T10:40:07;22.90;95.50
6462;DHT22;3264;42.862;25.098;2022-07-10T10:42:41;22.80;94.20
6462;DHT22;3264;42.862;25.098;2022-07-10T10:45:31;22.70;94.50
6462;DHT22;3264;42.862;25.098;2022-07-10T10:48:05;22.90;94.30
6462;DHT22;3264;42.862;25.098;2022-07-10T10:50:39;22.80;95.20
6462;DHT22;3264;42.862;25.098;2022-07-10T10:53:18;22.50;95.60
6462;DHT22;3264;42.862;25.098;2022-07-10T10:58:50;22.80;95.40
6462;DHT22;3264;42.862;25.098;2022-07-10T11:01:27;23.20;94.60
6462;DHT22;3264;42.862;25.098;2022-07-10T11:04:16;23.60;94.20
6462;DHT22;3264;42.862;25.098;2022-07-10T11:06:45;24.10;93.40
6462;DHT22;3264;42.862;25.098;2022-07-10T11:09:33;24.20;93.00
6462;DHT22;3264;42.862;25.098;2022-07-10T11:12:03;23.90;93.80
6462;DHT22;3264;42.862;25.098;2022-07-10T11:14:35;24.50;95.10
6462;DHT22;3264;42.862;25.098;2022-07-10T11:17:07;24.30;92.70
6462;DHT22;3264;42.862;25.098;2022-07-10T11:19:36;24.20;93.80
6462;DHT22;3264;42.862;25.098;2022-07-10T11:22:52;23.80;92.50
6462;DHT22;3264;42.862;25.098;2022-07-10T11:25:54;23.80;92.00
6462;DHT22;3264;42.862;25.098;2022-07-10T11:28:48;23.90;92.30
6462;DHT22;3264;42.862;25.098;2022-07-10T11:31:32;24.10;95.00
6462;DHT22;3264;42.862;25.098;2022-07-10T11:34:13;23.70;92.50
6462;DHT22;3264;42.862;25.098;2022-07-10T11:36:50;23.30;93.70
6462;DHT22;3264;42.862;25.098;2022-07-10T11:39:21;23.20;94.60
6462;DHT22;3264;42.862;25.098;2022-07-10T11:41:51;23.50;94.40
6462;DHT22;3264;42.862;25.098;2022-07-10T11:44:19;23.20;93.40
6462;DHT22;3264;42.862;25.098;2022-07-10T11:46:50;24.70;94.80
6462;DHT22;3264;42.862;25.098;2022-07-10T11:49:25;24.90;93.50
6462;DHT22;3264;42.862;25.098;2022-07-10T11:51:54;24.00;93.70
6462;DHT22;3264;42.862;25.098;2022-07-10T11:54:34;23.70;92.70
6462;DHT22;3264;42.862;25.098;2022-07-10T11:57:06;23.90;92.80
6462;DHT22;3264;42.862;25.098;2022-07-10T11:59:37;23.30;94.90
6462;DHT22;3264;42.862;25.098;2022-07-10T12:02:10;23.50;93.70
6462;DHT22;3264;42.862;25.098;2022-07-10T12:04:43;24.40;94.20
6462;DHT22;3264;42.862;25.098;2022-07-10T12:07:16;24.50;94.20
6462;DHT22;3264;42.862;25.098;2022-07-10T12:09:53;25.60;93.20
6462;DHT22;3264;42.862;25.098;2022-07-10T12:12:23;25.30;91.00
6462;DHT22;3264;42.862;25.098;2022-07-10T12:14:51;25.20;91.60
6462;DHT22;3264;42.862;25.098;2022-07-10T12:17:28;24.90;93.30
6462;DHT22;3264;42.862;25.098;2022-07-10T12:20:12;24.40;93.00
6462;DHT22;3264;42.862;25.098;2022-07-10T12:22:40;23.90;92.30
6462;DHT22;3264;42.862;25.098;2022-07-10T12:25:12;24.30;92.70
6462;DHT22;3264;42.862;25.098;2022-07-10T12:27:42;24.40;92.20
6462;DHT22;3264;42.862;25.098;2022-07-10T12:30:13;24.20;91.80
6462;DHT22;3264;42.862;25.098;2022-07-10T12:32:41;23.80;92.30
6462;DHT22;3264;42.862;25.098;2022-07-10T12:35:12;23.30;92.50
6462;DHT22;3264;42.862;25.098;2022-07-10T12:37:50;23.90;93.40
6462;DHT22;3264;42.862;25.098;2022-07-10T12:40:32;24.80;92.00
6462;DHT22;3264;42.862;25.098;2022-07-10T12:43:03;25.50;93.30
6462;DHT22;3264;42.862;25.098;2022-07-10T12:45:40;25.80;91.80
6462;DHT22;3264;42.862;25.098;2022-07-10T12:48:25;25.20;91.00
6462;DHT22;3264;42.862;25.098;2022-07-10T12:50:54;25.00;91.20
6462;DHT22;3264;42.862;25.098;2022-07-10T12:53:25;24.70;93.10
6462;DHT22;3264;42.862;25.098;2022-07-10T12:55:55;24.30;90.40
6462;DHT22;3264;42.862;25.098;2022-07-10T12:58:23;24.60;91.10
6462;DHT22;3264;42.862;25.098;2022-07-10T13:00:54;25.10;91.40
6462;DHT22;3264;42.862;25.098;2022-07-10T13:03:38;25.40;91.10
6462;DHT22;3264;42.862;25.098;2022-07-10T13:06:32;24.90;88.60
6462;DHT22;3264;42.862;25.098;2022-07-10T13:09:02;24.60;91.00
6462;DHT22;3264;42.862;25.098;2022-07-10T13:11:45;24.20;89.50
6462;DHT22;3264;42.862;25.098;2022-07-10T13:14:18;23.80;90.30
6462;DHT22;3264;42.862;25.098;2022-07-10T13:16:46;24.10;90.30
6462;DHT22;3264;42.862;25.098;2022-07-10T13:19:14;24.80;90.20
6462;DHT22;3264;42.862;25.098;2022-07-10T13:21:49;25.20;89.30
6462;DHT22;3264;42.862;25.098;2022-07-10T13:24:21;24.70;84.40
6462;DHT22;3264;42.862;25.098;2022-07-10T13:26:53;24.50;88.30
6462;DHT22;3264;42.862;25.098;2022-07-10T13:29:22;24.50;88.30
6462;DHT22;3264;42.862;25.098;2022-07-10T13:31:52;23.90;86.90
6462;DHT22;3264;42.862;25.098;2022-07-10T13:34:24;23.70;90.30
6462;DHT22;3264;42.862;25.098;2022-07-10T13:37:05;24.10;90.10
6462;DHT22;3264;42.862;25.098;2022-07-10T13:39:35;25.00;89.80
6462;DHT22;3264;42.862;25.098;2022-07-10T13:42:05;25.50;90.70
6462;DHT22;3264;42.862;25.098;2022-07-10T13:44:46;25.50;85.40
6462;DHT22;3264;42.862;25.098;2022-07-10T13:47:16;26.20;89.00
6462;DHT22;3264;42.862;25.098;2022-07-10T13:49:44;26.20;85.50
6462;DHT22;3264;42.862;25.098;2022-07-10T13:52:13;26.10;85.20
6462;DHT22;3264;42.862;25.098;2022-07-10T13:54:43;25.80;80.50
6462;DHT22;3264;42.862;25.098;2022-07-10T13:57:11;25.80;79.60
6462;DHT22;3264;42.862;25.098;2022-07-10T13:59:41;25.80;79.40
6462;DHT22;3264;42.862;25.098;2022-07-10T14:02:12;26.00;77.20
6462;DHT22;3264;42.862;25.098;2022-07-10T14:04:42;26.10;76.60
6462;DHT22;3264;42.862;25.098;2022-07-10T14:07:16;26.10;80.50
6462;DHT22;3264;42.862;25.098;2022-07-10T14:09:48;25.40;80.90
6462;DHT22;3264;42.862;25.098;2022-07-10T14:12:17;25.20;79.30
6462;DHT22;3264;42.862;25.098;2022-07-10T14:14:54;25.20;84.90
6462;DHT22;3264;42.862;25.098;2022-07-10T14:17:28;24.70;82.80
6462;DHT22;3264;42.862;25.098;2022-07-10T14:19:59;24.60;77.80
6462;DHT22;3264;42.862;25.098;2022-07-10T14:22:36;24.40;81.00
6462;DHT22;3264;42.862;25.098;2022-07-10T14:25:04;24.30;77.50
6462;DHT22;3264;42.862;25.098;2022-07-10T14:27:37;24.70;78.60
6462;DHT22;3264;42.862;25.098;2022-07-10T14:30:10;25.20;80.80
6462;DHT22;3264;42.862;25.098;2022-07-10T14:32:59;25.90;79.30
6462;DHT22;3264;42.862;25.098;2022-07-10T14:35:27;26.00;79.60
6462;DHT22;3264;42.862;25.098;2022-07-10T14:37:58;26.00;80.40
6462;DHT22;3264;42.862;25.098;2022-07-10T14:40:29;25.70;75.90
6462;DHT22;3264;42.862;25.098;2022-07-10T14:43:00;25.30;74.40
6462;DHT22;3264;42.862;25.098;2022-07-10T14:45:30;25.20;74.20
6462;DHT22;3264;42.862;25.098;2022-07-10T14:48:02;25.20;75.80
6462;DHT22;3264;42.862;25.098;2022-07-10T14:50:35;25.30;74.20
6462;DHT22;3264;42.862;25.098;2022-07-10T14:53:04;25.50;78.10
6462;DHT22;3264;42.862;25.098;2022-07-10T14:55:36;25.30;80.90
6462;DHT22;3264;42.862;25.098;2022-07-10T14:58:04;24.80;75.20
6462;DHT22;3264;42.862;25.098;2022-07-10T15:00:38;24.50;76.20
6462;DHT22;3264;42.862;25.098;2022-07-10T15:03:06;24.30;77.90
6462;DHT22;3264;42.862;25.098;2022-07-10T15:05:34;24.30;82.70
6462;DHT22;3264;42.862;25.098;2022-07-10T15:08:07;24.30;82.20
6462;DHT22;3264;42.862;25.098;2022-07-10T15:10:40;24.20;83.10
6462;DHT22;3264;42.862;25.098;2022-07-10T15:13:12;24.30;80.20
6462;DHT22;3264;42.862;25.098;2022-07-10T15:15:40;24.40;80.00
6462;DHT22;3264;42.862;25.098;2022-07-10T15:18:08;24.60;81.20
6462;DHT22;3264;42.862;25.098;2022-07-10T15:20:37;24.60;79.90
6462;DHT22;3264;42.862;25.098;2022-07-10T15:23:06;24.40;80.70
6462;DHT22;3264;42.862;25.098;2022-07-10T15:25:34;24.30;82.00
6462;DHT22;3264;42.862;25.098;2022-07-10T15:28:19;24.40;81.60
6462;DHT22;3264;42.862;25.098;2022-07-10T15:30:47;24.40;80.00
6462;DHT22;3264;42.862;25.098;2022-07-10T15:33:18;24.30;82.30
6462;DHT22;3264;42.862;25.098;2022-07-10T15:35:45;24.20;79.30
6462;DHT22;3264;42.862;25.098;2022-07-10T15:38:17;24.20;79.50
6462;DHT22;3264;42.862;25.098;2022-07-10T15:40:45;24.20;80.30
6462;DHT22;3264;42.862;25.098;2022-07-10T15:43:13;24.20;78.10
6462;DHT22;3264;42.862;25.098;2022-07-10T15:45:41;24.00;81.40
6462;DHT22;3264;42.862;25.098;2022-07-10T15:48:09;24.00;83.30
6462;DHT22;3264;42.862;25.098;2022-07-10T15:50:41;23.80;88.80
6462;DHT22;3264;42.862;25.098;2022-07-10T15:53:11;23.50;89.00
6462;DHT22;3264;42.862;25.098;2022-07-10T15:55:43;23.30;90.50
6462;DHT22;3264;42.862;25.098;2022-07-10T15:58:11;23.10;91.00
6462;DHT22;3264;42.862;25.098;2022-07-10T16:00:42;23.00;91.20
6462;DHT22;3264;42.862;25.098;2022-07-10T16:03:21;22.80;90.00
6462;DHT22;3264;42.862;25.098;2022-07-10T16:05:53;22.90;84.30
6462;DHT22;3264;42.862;25.098;2022-07-10T16:08:30;22.80;83.80
6462;DHT22;3264;42.862;25.098;2022-07-10T16:11:05;22.50;87.70
6462;DHT22;3264;42.862;25.098;2022-07-10T16:13:33;22.50;83.90
6462;DHT22;3264;42.862;25.098;2022-07-10T16:16:20;22.40;83.80
6462;DHT22;3264;42.862;25.098;2022-07-10T16:18:50;22.60;81.20
6462;DHT22;3264;42.862;25.098;2022-07-10T16:21:28;22.70;81.70